97CL weather

Siller Bros Inc Airport
Oroville, California, United States

Public forecast

Using degrees Fahrenheit for public forecast. Weather courtesy of forecast.io.

Closest aviation weather report (METAR) to Siller Bros Inc Airport

Closest report is Oroville Municipal Airport, 2.5 nm (4.7 km) NW. Retrieved 2019/10/23 23:53 UTC (55 minutes ago):

KOVE 232353Z AUTO 32011KT 10SM CLR 29/M01 A2995 RMK AO2 SLP142 T02941011 10328 20256 56012

Closest aviation forecast (TAF) to Siller Bros Inc Airport

Closest forecast is Beale Air Force Base, 20.6 nm (38.1 km) SSE. Retrieved 2019/10/23 19:09 UTC (6 hours ago):

TAF KBAB 231902Z 2319/2501 34012KT 9999 SKC QNH2990INS TEMPO 2320/2324 34015G25KT BECMG 2405/2406 VRB06KT 9999 SKC QNH2997INS BECMG 2417/2418 33009KT 9999 SKC QNH3001INS TX35/2323Z TN15/2413Z